Time;durP1;ratioP1;P1;durP2;ratioP2;P2;SDS_P1;SDS_P2;PMS_P1;PMS_P2;Temp;Humidity;BMP_temperature;BMP_pressure;BME280_temperature;BME280_humidity;BME280_pressure;Samples;Min_cycle;Max_cycle;Signal;HPM_P1;HPM_P2
2022/03/01 00:08:14;;;;;;;10.48;5.20;;;;;;;2.78;48.25;102127.22;18307965;32;20089;-65
2022/03/01 00:18:19;;;;;;;10.52;5.00;;;;;;;2.55;49.02;102123.28;18306581;32;20098;-64
2022/03/01 00:28:22;;;;;;;11.48;5.05;;;;;;;2.48;49.41;102118.59;18306379;32;20188;-64
2022/03/01 00:38:27;;;;;;;12.02;5.10;;;;;;;2.61;48.57;102126.25;18306234;32;20133;-65
2022/03/01 00:48:30;;;;;;;10.93;4.95;;;;;;;2.20;49.82;102110.09;18305732;32;20093;-64
2022/03/01 00:58:35;;;;;;;11.18;4.95;;;;;;;2.35;49.88;102102.38;18305727;32;20192;-64
2022/03/01 01:08:38;;;;;;;9.70;4.55;;;;;;;2.63;48.77;102098.84;18304795;32;20094;-64
2022/03/01 01:18:43;;;;;;;11.88;5.20;;;;;;;2.78;48.14;102093.69;18304734;32;20093;-64
2022/03/01 01:28:46;;;;;;;9.55;4.70;;;;;;;2.71;47.96;102096.72;18304709;32;20097;-64
2022/03/01 01:38:52;;;;;;;10.40;4.45;;;;;;;2.69;47.90;102095.72;18304359;32;20094;-64
2022/03/01 01:48:55;;;;;;;9.05;4.80;;;;;;;2.70;47.63;102094.06;18303710;32;20143;-64
2022/03/01 01:58:59;;;;;;;10.65;4.18;;;;;;;2.68;47.41;102100.81;18303597;32;20102;-64
2022/03/01 02:09:03;;;;;;;9.30;4.28;;;;;;;2.88;46.81;102092.53;18302568;32;20385;-64
2022/03/01 02:19:11;;;;;;;9.10;3.87;;;;;;;2.77;46.84;102078.13;18302392;32;20090;-64
2022/03/01 02:29:16;;;;;;;8.63;4.12;;;;;;;2.55;47.31;102079.47;18301133;32;20094;-64
2022/03/01 02:39:19;;;;;;;11.12;3.83;;;;;;;2.47;47.01;102075.59;18301346;32;20094;-64
2022/03/01 02:49:23;;;;;;;8.55;3.92;;;;;;;2.61;46.92;102068.66;18301138;32;20192;-64
2022/03/01 02:59:27;;;;;;;8.65;4.22;;;;;;;2.14;47.74;102065.06;18300522;32;20133;-64
2022/03/01 03:09:31;;;;;;;7.90;3.50;;;;;;;2.43;46.90;102068.44;18299474;32;20112;-67
2022/03/01 03:19:36;;;;;;;9.60;3.72;;;;;;;2.42;47.23;102076.97;18299085;32;20101;-67
2022/03/01 03:29:40;;;;;;;8.38;3.62;;;;;;;2.53;46.55;102065.59;18298407;32;20101;-66
2022/03/01 03:39:43;;;;;;;8.75;3.53;;;;;;;2.48;46.38;102064.47;18306438;32;20098;-64
2022/03/01 03:49:48;;;;;;;8.05;4.00;;;;;;;2.41;47.30;102085.53;18307301;32;20098;-64
2022/03/01 03:59:51;;;;;;;7.85;3.80;;;;;;;2.18;46.98;102075.62;18307300;32;20240;-64
2022/03/01 04:09:56;;;;;;;10.90;4.30;;;;;;;2.33;46.77;102067.91;18306836;32;20123;-64
2022/03/01 04:19:59;;;;;;;9.88;3.95;;;;;;;2.10;47.31;102073.41;18306535;32;20094;-65
2022/03/01 04:30:04;;;;;;;8.57;3.65;;;;;;;2.10;47.13;102057.97;18306536;32;20442;-64
2022/03/01 04:40:09;;;;;;;8.43;4.30;;;;;;;1.54;49.01;102057.19;18306355;32;20503;-64
2022/03/01 04:50:14;;;;;;;9.37;4.13;;;;;;;1.73;48.46;102074.66;18304975;32;20127;-64
2022/03/01 05:00:18;;;;;;;9.52;3.87;;;;;;;1.44;49.47;102064.34;18305775;32;20094;-64
2022/03/01 05:10:24;;;;;;;10.90;3.97;;;;;;;1.43;49.89;102067.72;18305843;32;20496;-64
2022/03/01 05:20:27;;;;;;;11.48;4.60;;;;;;;1.35;49.48;102063.78;18304829;32;20111;-64
2022/03/01 05:30:32;;;;;;;7.82;3.37;;;;;;;1.70;48.21;102056.44;18304184;32;20086;-64
2022/03/01 05:40:35;;;;;;;7.60;3.58;;;;;;;1.93;47.47;102058.69;18304395;32;20112;-64
2022/03/01 05:50:39;;;;;;;9.70;3.45;;;;;;;1.86;47.92;102053.09;18304064;32;20360;-64
2022/03/01 06:00:43;;;;;;;12.18;4.00;;;;;;;2.06;47.42;102046.56;18302131;32;20105;-64
2022/03/01 06:10:48;;;;;;;40.85;20.02;;;;;;;2.48;46.20;102056.72;18302838;32;20101;-64
2022/03/01 06:20:51;;;;;;;9.77;4.40;;;;;;;3.02;45.20;102064.03;18302694;32;20094;-67
2022/03/01 06:30:55;;;;;;;13.85;5.45;;;;;;;3.44;43.38;102072.34;18302378;32;20089;-64
2022/03/01 06:40:59;;;;;;;15.15;5.78;;;;;;;3.88;42.85;102066.88;18301381;32;20089;-64
2022/03/01 06:51:05;;;;;;;6.60;3.28;;;;;;;4.02;42.06;102054.66;18299360;32;20112;-64
2022/03/01 07:01:08;;;;;;;8.20;3.50;;;;;;;4.95;39.58;102050.59;18296959;32;20119;-64
2022/03/01 07:11:16;;;;;;;6.68;2.78;;;;;;;5.39;38.61;102043.13;18299925;32;20378;-65
2022/03/01 07:21:19;;;;;;;7.45;3.20;;;;;;;9.38;32.29;102027.50;18307693;32;20093;-66
2022/03/01 07:31:24;;;;;;;6.93;2.78;;;;;;;13.83;23.94;102010.03;18307531;32;20115;-66
2022/03/01 07:41:28;;;;;;;6.75;2.65;;;;;;;15.24;22.33;102021.59;18307707;32;20453;-66
2022/03/01 07:51:32;;;;;;;6.55;2.87;;;;;;;13.93;23.05;102001.38;18307607;32;20089;-66
2022/03/01 08:01:35;;;;;;;7.25;3.10;;;;;;;13.93;23.50;102003.13;18306407;32;20375;-66
2022/03/01 08:11:40;;;;;;;10.35;5.20;;;;;;;11.34;26.58;102011.44;18306418;32;20235;-65
2022/03/01 08:21:44;;;;;;;12.02;5.07;;;;;;;10.06;27.29;102018.97;18306870;32;20111;-65
2022/03/01 08:31:48;;;;;;;9.57;3.00;;;;;;;9.65;27.77;102019.59;18306256;32;20378;-66
2022/03/01 08:41:54;;;;;;;7.25;2.60;;;;;;;9.76;27.39;102014.66;18305953;32;20104;-67
2022/03/01 08:51:59;;;;;;;7.80;3.37;;;;;;;9.37;27.14;101997.06;18305699;32;20085;-65
2022/03/01 09:02:02;;;;;;;7.32;3.00;;;;;;;10.85;25.70;101991.25;18305536;32;20387;-66
2022/03/01 09:12:07;;;;;;;9.13;3.10;;;;;;;9.84;26.79;101986.19;18305048;32;20348;-66
2022/03/01 09:22:10;;;;;;;7.60;2.85;;;;;;;9.97;25.82;101974.38;18304839;32;20459;-66
2022/03/01 09:32:17;;;;;;;7.07;2.45;;;;;;;10.52;26.21;101974.84;18304201;32;20089;-67
2022/03/01 09:42:21;;;;;;;7.45;2.60;;;;;;;14.71;18.69;101939.78;18305306;32;20332;-67
2022/03/01 09:52:25;;;;;;;5.28;2.28;;;;;;;18.12;15.29;101909.28;18303799;32;20450;-66
2022/03/01 10:02:35;;;;;;;6.32;2.90;;;;;;;17.01;14.90;101907.44;18302853;32;20112;-66
2022/03/01 10:12:40;;;;;;;4.43;2.35;;;;;;;14.97;17.95;101904.87;18302505;32;20366;-67
2022/03/01 10:22:45;;;;;;;6.20;2.42;;;;;;;11.76;19.89;101890.19;18302398;32;20185;-66
2022/03/01 10:32:50;;;;;;;5.35;2.42;;;;;;;10.79;22.57;101884.91;18302592;32;20094;-65
2022/03/01 10:43:07;;;;;;;4.40;1.90;;;;;;;10.92;21.97;101854.69;18303011;32;20379;-66
2022/03/01 10:53:12;;;;;;;5.65;2.28;;;;;;;11.95;20.99;101843.41;18309178;32;20662;-65
2022/03/01 11:03:16;;;;;;;5.50;2.20;;;;;;;12.40;19.46;101811.75;18308991;32;20098;-66
2022/03/01 11:13:25;;;;;;;4.78;2.35;;;;;;;13.59;17.29;101791.16;18308421;32;20129;-66
2022/03/01 11:23:28;;;;;;;5.55;2.15;;;;;;;13.92;17.49;101771.22;18308208;32;20094;-66
2022/03/01 11:33:35;;;;;;;5.78;2.55;;;;;;;15.99;15.23;101749.66;18307476;32;20102;-67
2022/03/01 11:43:40;;;;;;;6.47;2.37;;;;;;;17.29;14.04;101730.47;18308814;32;20094;-66
2022/03/01 11:53:49;;;;;;;3.78;1.90;;;;;;;17.24;13.24;101712.91;18306731;32;20116;-66
2022/03/01 12:03:52;;;;;;;7.43;2.50;;;;;;;14.80;15.42;101712.03;18307143;32;20257;-66
2022/03/01 12:14:02;;;;;;;5.00;2.22;;;;;;;11.58;17.84;101699.81;18306136;32;20391;-66
2022/03/01 12:24:07;;;;;;;7.30;2.50;;;;;;;10.63;19.22;101692.19;18305600;32;20152;-66
2022/03/01 12:34:12;;;;;;;9.65;2.72;;;;;;;11.23;19.11;101674.00;18304457;32;20137;-66
2022/03/01 12:44:17;;;;;;;6.18;2.67;;;;;;;10.57;17.43;101679.91;18299400;32;20363;-66
2022/03/01 12:54:23;;;;;;;6.20;2.92;;;;;;;10.60;19.07;101660.81;18266352;32;20085;-65
2022/03/01 13:04:27;;;;;;;8.52;5.12;;;;;;;11.44;18.63;101652.56;18304903;32;20089;-65
2022/03/01 13:14:33;;;;;;;5.37;2.10;;;;;;;10.86;18.39;101632.50;18305581;32;20112;-65
2022/03/01 13:24:38;;;;;;;7.97;2.45;;;;;;;11.30;17.62;101617.50;18304585;32;20085;-65
2022/03/01 13:34:46;;;;;;;5.30;2.25;;;;;;;11.59;17.14;101609.19;18304474;32;20116;-65
2022/03/01 13:44:51;;;;;;;8.60;3.30;;;;;;;11.23;16.78;101593.88;18304280;32;20442;-65
2022/03/01 13:55:03;;;;;;;4.30;2.28;;;;;;;11.10;16.55;101577.13;18303632;32;20655;-65
2022/03/01 14:05:08;;;;;;;4.60;2.10;;;;;;;10.91;17.18;101578.63;18303590;32;20082;-65
2022/03/01 14:15:13;;;;;;;4.55;2.03;;;;;;;10.92;16.90;101562.09;18302898;32;20618;-66
2022/03/01 14:25:17;;;;;;;4.12;2.20;;;;;;;10.64;16.10;101553.81;18295278;32;20097;-65
2022/03/01 14:35:21;;;;;;;5.75;2.28;;;;;;;11.22;16.55;101539.84;18297628;32;20090;-65
2022/03/01 14:45:25;;;;;;;4.75;2.30;;;;;;;11.26;15.96;101527.72;18301325;32;20093;-65
2022/03/01 14:55:31;;;;;;;6.28;2.60;;;;;;;11.22;15.80;101518.94;18300846;32;20386;-65
2022/03/01 15:05:34;;;;;;;3.97;1.98;;;;;;;11.35;16.44;101519.09;18300292;32;20093;-65
2022/03/01 15:15:39;;;;;;;4.07;2.05;;;;;;;10.76;16.80;101515.69;18299406;32;20094;-65
2022/03/01 15:25:42;;;;;;;5.15;2.47;;;;;;;10.70;17.04;101511.25;18298935;32;20110;-65
2022/03/01 15:35:47;;;;;;;9.90;3.10;;;;;;;11.29;17.20;101503.34;18305585;32;20145;-65
2022/03/01 15:45:50;;;;;;;9.15;4.03;;;;;;;11.05;16.95;101489.97;18307506;32;20142;-65
2022/03/01 15:55:55;;;;;;;7.95;3.30;;;;;;;11.03;17.30;101493.44;18306428;32;20094;-65
2022/03/01 16:05:58;;;;;;;8.65;3.17;;;;;;;10.87;17.66;101487.97;18307152;32;20121;-65
2022/03/01 16:16:03;;;;;;;17.08;8.52;;;;;;;10.62;18.11;101487.63;18306766;32;20498;-65
2022/03/01 16:26:07;;;;;;;18.08;9.23;;;;;;;10.32;18.97;101491.47;18305084;32;20093;-65
2022/03/01 16:36:12;;;;;;;55.97;14.65;;;;;;;9.80;20.47;101494.94;18306457;32;20093;-65
2022/03/01 16:46:15;;;;;;;23.17;12.52;;;;;;;8.88;22.42;101497.41;18306303;32;20098;-65
2022/03/01 16:56:20;;;;;;;24.12;9.35;;;;;;;8.40;23.53;101498.88;18305336;32;20559;-65
2022/03/01 17:06:26;;;;;;;39.85;18.45;;;;;;;7.53;26.60;101507.87;18305364;32;20093;-64
2022/03/01 17:16:30;;;;;;;21.37;8.60;;;;;;;6.93;27.66;101509.62;18304680;32;20089;-64
2022/03/01 17:26:34;;;;;;;28.62;11.93;;;;;;;6.55;28.08;101506.69;18305245;32;20093;-64
2022/03/01 17:36:39;;;;;;;26.58;12.88;;;;;;;5.68;31.06;101515.84;18304416;32;20089;-65
2022/03/01 17:46:43;;;;;;;30.75;10.48;;;;;;;5.01;31.46;101533.22;18304301;32;20140;-64
2022/03/01 17:56:47;;;;;;;40.58;17.05;;;;;;;4.60;32.33;101535.06;18303412;32;20101;-64
2022/03/01 18:06:51;;;;;;;30.95;14.20;;;;;;;4.68;33.58;101538.84;18303901;32;20124;-64
2022/03/01 18:16:55;;;;;;;39.03;15.68;;;;;;;3.84;34.92;101543.09;18303938;32;20097;-63
2022/03/01 18:26:58;;;;;;;36.35;15.60;;;;;;;3.49;34.11;101537.25;18301592;32;20082;-63
2022/03/01 18:37:05;;;;;;;39.55;16.20;;;;;;;3.43;35.20;101548.19;18301487;32;20094;-63
2022/03/01 18:47:08;;;;;;;37.85;16.42;;;;;;;3.00;36.68;101547.06;18301403;32;20486;-63
2022/03/01 18:57:14;;;;;;;30.75;12.70;;;;;;;2.76;38.32;101551.13;18293495;32;225792;-66
2022/03/01 19:07:18;;;;;;;23.77;11.95;;;;;;;2.25;38.14;101560.66;18304969;32;20089;-66
2022/03/01 19:17:23;;;;;;;66.22;27.58;;;;;;;2.13;37.98;101561.75;18308119;32;20122;-66
2022/03/01 19:27:27;;;;;;;43.15;20.33;;;;;;;2.02;39.53;101560.34;18308272;32;20108;-66
2022/03/01 19:37:32;;;;;;;193.87;67.23;;;;;;;2.23;39.69;101552.81;18308085;32;20108;-66
2022/03/01 19:47:40;;;;;;;50.53;22.87;;;;;;;1.76;41.11;101571.06;18307615;32;20115;-66
2022/03/01 19:57:45;;;;;;;53.42;26.62;;;;;;;2.33;40.49;101575.66;18307474;32;20093;-66
2022/03/01 20:07:50;;;;;;;40.80;20.67;;;;;;;2.22;40.76;101579.41;18307234;32;20777;-66
2022/03/01 20:17:54;;;;;;;47.78;23.40;;;;;;;2.24;40.61;101571.75;18305716;32;20116;-66
2022/03/01 20:27:58;;;;;;;38.60;17.98;;;;;;;2.24;41.38;101574.34;18305325;32;20094;-66
2022/03/01 20:38:04;;;;;;;34.33;17.00;;;;;;;2.10;42.35;101586.50;18305946;32;20100;-66
2022/03/01 20:48:08;;;;;;;31.73;14.32;;;;;;;1.64;44.22;101585.84;18305765;32;20425;-66
2022/03/01 20:58:12;;;;;;;29.67;16.02;;;;;;;1.35;42.53;101595.47;18305380;32;20085;-66
2022/03/01 21:08:16;;;;;;;35.40;15.13;;;;;;;1.29;44.52;101590.88;18305527;32;20405;-66
2022/03/01 21:18:21;;;;;;;23.67;12.87;;;;;;;1.41;43.99;101606.06;18304765;32;20169;-66
2022/03/01 21:28:25;;;;;;;23.17;11.00;;;;;;;1.36;42.24;101610.97;18304237;32;20461;-66
2022/03/01 21:38:30;;;;;;;24.73;10.97;;;;;;;1.43;43.22;101604.50;18304277;32;20111;-66
2022/03/01 21:48:33;;;;;;;21.47;8.63;;;;;;;1.02;44.95;101600.50;18304026;32;20074;-66
2022/03/01 21:58:38;;;;;;;22.37;9.67;;;;;;;0.83;44.36;101596.88;18302253;32;20141;-66
2022/03/01 22:08:42;;;;;;;21.20;9.13;;;;;;;0.84;45.41;101603.78;18304115;32;20355;-65
2022/03/01 22:18:48;;;;;;;25.10;8.80;;;;;;;0.60;44.07;101606.75;18303559;32;20093;-65
2022/03/01 22:28:51;;;;;;;21.00;7.97;;;;;;;0.34;46.63;101603.53;18302529;32;20100;-65
2022/03/01 22:38:55;;;;;;;18.53;7.80;;;;;;;0.19;45.63;101590.66;18303570;32;20133;-65
2022/03/01 22:48:59;;;;;;;16.00;7.43;;;;;;;0.37;45.21;101583.16;18309405;32;20104;-65
2022/03/01 22:59:04;;;;;;;19.23;8.60;;;;;;;0.13;44.25;101588.63;18302776;32;20093;-65
2022/03/01 23:09:07;;;;;;;21.47;9.20;;;;;;;0.02;45.75;101589.66;18308850;32;20097;-65
2022/03/01 23:19:12;;;;;;;20.47;8.67;;;;;;;-0.35;46.38;101572.91;18308793;32;20101;-65
2022/03/01 23:29:16;;;;;;;18.07;8.90;;;;;;;-0.34;46.27;101554.16;18308599;32;20443;-65
2022/03/01 23:39:20;;;;;;;20.10;8.70;;;;;;;-0.65;48.15;101557.41;18308078;32;20133;-65
2022/03/01 23:49:27;;;;;;;18.73;8.63;;;;;;;-1.01;47.63;101542.37;18307665;32;20362;-63
2022/03/01 23:59:32;;;;;;;18.33;8.20;;;;;;;-1.00;48.86;101544.16;18306946;32;20149;-64
